Time,TemperatureF,DewpointF,PressureIn,WindDirection,WindDirectionDegrees,WindSpeedMPH,WindSpeedGustMPH,Humidity,HourlyPrecipIn,Conditions,Clouds,dailyrainin,SoftwareType,DateUTC
2013-09-12 00:07:00,58.4,56.0,29.96,SE,131,0.0,0.0,91,0.00,,,0.00,weatherlink.com 1.10,2013-09-12 07:07:00,
2013-09-12 00:22:00,58.5,56.0,29.95,SSE,157,0.0,1.0,91,0.00,,,0.00,weatherlink.com 1.10,2013-09-12 07:22:00,
2013-09-12 00:37:00,58.1,56.0,29.95,SSE,158,0.0,0.0,91,0.00,,,0.00,weatherlink.com 1.10,2013-09-12 07:37:00,
2013-09-12 00:52:00,57.8,56.0,29.95,SSE,157,0.0,0.0,92,0.00,,,0.00,weatherlink.com 1.10,2013-09-12 07:52:00,
2013-09-12 01:07:00,57.7,56.0,29.96,SE,136,0.0,0.0,93,0.00,,,0.00,weatherlink.com 1.10,2013-09-12 08:07:00,
2013-09-12 01:22:00,57.7,55.0,29.95,SE,136,0.0,0.0,92,0.00,,,0.00,weatherlink.com 1.10,2013-09-12 08:22:00,
2013-09-12 01:37:00,57.5,56.0,29.96,SE,136,0.0,0.0,93,0.00,,,0.00,weatherlink.com 1.10,2013-09-12 08:37:00,
2013-09-12 01:52:00,57.8,56.0,29.96,SE,136,0.0,0.0,94,0.00,,,0.00,weatherlink.com 1.10,2013-09-12 08:52:00,
2013-09-12 02:07:00,58.5,57.0,29.95,SE,136,0.0,0.0,93,0.00,,,0.00,weatherlink.com 1.10,2013-09-12 09:07:00,
2013-09-12 02:22:00,59.0,57.0,29.95,SE,136,0.0,1.0,92,0.00,,,0.00,weatherlink.com 1.10,2013-09-12 09:22:00,
2013-09-12 02:37:00,59.2,57.0,29.95,SE,136,0.0,1.0,91,0.00,,,0.00,weatherlink.com 1.10,2013-09-12 09:37:00,
2013-09-12 02:52:00,59.4,57.0,29.95,SE,136,0.0,0.0,90,0.00,,,0.00,weatherlink.com 1.10,2013-09-12 09:52:00,
2013-09-12 03:07:00,59.5,57.0,29.95,SE,136,0.0,0.0,90,0.00,,,0.00,weatherlink.com 1.10,2013-09-12 10:07:00,
2013-09-12 03:22:00,59.4,57.0,29.95,SE,136,0.0,0.0,90,0.00,,,0.00,weatherlink.com 1.10,2013-09-12 10:22:00,
2013-09-12 03:37:00,59.4,57.0,29.95,SE,136,0.0,1.0,90,0.00,,,0.00,weatherlink.com 1.10,2013-09-12 10:37:00,
2013-09-12 03:53:00,59.6,57.0,29.95,SE,136,0.0,1.0,90,0.00,,,0.00,weatherlink.com 1.10,2013-09-12 10:53:00,
2013-09-12 04:08:00,59.7,57.0,29.94,SE,136,0.0,0.0,90,0.00,,,0.00,weatherlink.com 1.10,2013-09-12 11:08:00,
2013-09-12 04:23:00,59.9,57.0,29.94,SE,136,0.0,0.0,90,0.00,,,0.00,weatherlink.com 1.10,2013-09-12 11:23:00,
2013-09-12 04:38:00,60.0,57.0,29.94,SE,136,0.0,0.0,89,0.00,,,0.00,weatherlink.com 1.10,2013-09-12 11:38:00,
2013-09-12 04:53:00,60.1,57.0,29.95,SE,136,0.0,0.0,88,0.00,,,0.00,weatherlink.com 1.10,2013-09-12 11:53:00,
2013-09-12 05:08:00,60.2,57.0,29.95,SE,136,0.0,0.0,88,0.00,,,0.00,weatherlink.com 1.10,2013-09-12 12:08:00,
2013-09-12 05:23:00,60.3,57.0,29.95,SE,136,0.0,0.0,88,0.00,,,0.00,weatherlink.com 1.10,2013-09-12 12:23:00,
2013-09-12 05:38:00,60.3,57.0,29.94,SE,136,0.0,0.0,88,0.00,,,0.00,weatherlink.com 1.10,2013-09-12 12:38:00,
2013-09-12 05:53:00,60.3,57.0,29.95,SE,136,0.0,0.0,88,0.00,,,0.00,weatherlink.com 1.10,2013-09-12 12:53:00,
2013-09-12 06:08:00,60.3,57.0,29.95,SE,136,0.0,0.0,88,0.00,,,0.00,weatherlink.com 1.10,2013-09-12 13:08:00,
2013-09-12 06:23:00,60.2,56.0,29.95,SE,136,0.0,0.0,87,0.00,,,0.00,weatherlink.com 1.10,2013-09-12 13:23:00,
2013-09-12 06:38:00,60.0,57.0,29.95,SE,136,0.0,1.0,88,0.00,,,0.00,weatherlink.com 1.10,2013-09-12 13:38:00,
2013-09-12 06:53:00,60.0,57.0,29.95,SE,136,0.0,0.0,88,0.00,,,0.00,weatherlink.com 1.10,2013-09-12 13:53:00,
2013-09-12 07:08:00,60.0,57.0,29.95,SE,136,0.0,0.0,88,0.00,,,0.00,weatherlink.com 1.10,2013-09-12 14:08:00,
2013-09-12 07:23:00,59.8,56.0,29.96,ESE,108,0.0,1.0,88,0.00,,,0.00,weatherlink.com 1.10,2013-09-12 14:23:00,
2013-09-12 07:38:00,59.7,56.0,29.96,SE,134,0.0,0.0,88,0.00,,,0.00,weatherlink.com 1.10,2013-09-12 14:38:00,
2013-09-12 07:53:00,59.9,56.0,29.96,SE,134,0.0,0.0,88,0.00,,,0.00,weatherlink.com 1.10,2013-09-12 14:53:00,
2013-09-12 08:08:00,60.3,57.0,29.96,SE,134,0.0,0.0,87,0.00,,,0.00,weatherlink.com 1.10,2013-09-12 15:08:00,
2013-09-12 08:23:00,60.9,57.0,29.97,SE,134,0.0,0.0,87,0.00,,,0.00,weatherlink.com 1.10,2013-09-12 15:23:00,
2013-09-12 08:38:00,61.8,57.0,29.97,SE,134,0.0,0.0,85,0.00,,,0.00,weatherlink.com 1.10,2013-09-12 15:38:00,
2013-09-12 08:53:00,62.1,57.0,29.97,SSE,165,0.0,1.0,84,0.00,,,0.00,weatherlink.com 1.10,2013-09-12 15:53:00,
2013-09-12 09:08:00,62.4,57.0,29.97,SSE,160,0.0,1.0,83,0.00,,,0.00,weatherlink.com 1.10,2013-09-12 16:08:00,
2013-09-12 09:23:00,63.0,57.0,29.97,SSE,154,0.0,0.0,82,0.00,,,0.00,weatherlink.com 1.10,2013-09-12 16:23:00,
2013-09-12 09:38:00,63.6,57.0,29.97,NNW,344,0.0,2.0,80,0.00,,,0.00,weatherlink.com 1.10,2013-09-12 16:38:00,
2013-09-12 09:53:00,64.3,58.0,29.97,SW,214,0.0,1.0,80,0.00,,,0.00,weatherlink.com 1.10,2013-09-12 16:53:00,
2013-09-12 10:09:00,65.6,58.0,29.97,NNW,347,0.0,1.0,77,0.00,,,0.00,weatherlink.com 1.10,2013-09-12 17:09:00,
2013-09-12 10:24:00,66.6,59.0,29.97,WNW,290,1.0,2.0,76,0.00,,,0.00,weatherlink.com 1.10,2013-09-12 17:24:00,
2013-09-12 10:39:00,67.3,59.0,29.97,NNW,327,0.0,2.0,74,0.00,,,0.00,weatherlink.com 1.10,2013-09-12 17:39:00,
2013-09-12 10:54:00,69.1,59.0,29.97,SW,221,0.0,2.0,71,0.00,,,0.00,weatherlink.com 1.10,2013-09-12 17:54:00,
2013-09-12 11:09:00,70.7,60.0,29.96,SW,223,1.0,3.0,68,0.00,,,0.00,weatherlink.com 1.10,2013-09-12 18:09:00,
2013-09-12 11:24:00,71.0,59.0,29.96,NNW,342,0.0,4.0,67,0.00,,,0.00,weatherlink.com 1.10,2013-09-12 18:24:00,
2013-09-12 11:39:00,72.8,59.0,29.96,SW,224,1.0,3.0,63,0.00,,,0.00,weatherlink.com 1.10,2013-09-12 18:39:00,
2013-09-12 11:54:00,74.4,60.0,29.96,ESE,122,1.0,3.0,61,0.00,,,0.00,weatherlink.com 1.10,2013-09-12 18:54:00,
2013-09-12 12:09:00,74.9,60.0,29.95,WSW,249,1.0,4.0,60,0.00,,,0.00,weatherlink.com 1.10,2013-09-12 19:09:00,
2013-09-12 12:24:00,75.0,60.0,29.95,SE,146,1.0,3.0,59,0.00,,,0.00,weatherlink.com 1.10,2013-09-12 19:24:00,
2013-09-12 12:39:00,75.9,60.0,29.94,NW,319,0.0,3.0,58,0.00,,,0.00,weatherlink.com 1.10,2013-09-12 19:39:00,
2013-09-12 12:54:00,76.0,61.0,29.94,NNW,338,2.0,6.0,59,0.00,,,0.00,weatherlink.com 1.10,2013-09-12 19:54:00,
2013-09-12 13:09:00,76.3,61.0,29.93,NNE,15,2.0,4.0,59,0.00,,,0.00,weatherlink.com 1.10,2013-09-12 20:09:00,
2013-09-12 13:24:00,77.3,61.0,29.93,NNE,13,0.0,5.0,58,0.00,,,0.00,weatherlink.com 1.10,2013-09-12 20:24:00,
2013-09-12 13:39:00,77.8,61.0,29.93,NW,310,2.0,4.0,57,0.00,,,0.00,weatherlink.com 1.10,2013-09-12 20:39:00,
2013-09-12 13:54:00,76.8,62.0,29.92,NW,321,1.0,3.0,60,0.00,,,0.00,weatherlink.com 1.10,2013-09-12 20:54:00,
2013-09-12 14:09:00,76.9,62.0,29.92,North,354,0.0,4.0,60,0.00,,,0.00,weatherlink.com 1.10,2013-09-12 21:09:00,
2013-09-12 14:24:00,75.5,61.0,29.92,WNW,300,1.0,6.0,62,0.00,,,0.00,weatherlink.com 1.10,2013-09-12 21:24:00,
2013-09-12 14:39:00,76.4,61.0,29.92,North,353,2.0,3.0,60,0.00,,,0.00,weatherlink.com 1.10,2013-09-12 21:39:00,
2013-09-12 14:54:00,76.7,62.0,29.91,WNW,293,1.0,2.0,60,0.00,,,0.00,weatherlink.com 1.10,2013-09-12 21:54:00,
2013-09-12 15:09:00,77.0,61.0,29.91,NE,41,2.0,3.0,59,0.00,,,0.00,weatherlink.com 1.10,2013-09-12 22:09:00,
2013-09-12 15:24:00,77.5,61.0,29.90,North,11,1.0,2.0,58,0.00,,,0.00,weatherlink.com 1.10,2013-09-12 22:24:00,
2013-09-12 15:39:00,77.8,61.0,29.90,WNW,302,0.0,3.0,57,0.00,,,0.00,weatherlink.com 1.10,2013-09-12 22:39:00,
2013-09-12 15:54:00,76.7,61.0,29.89,NW,316,1.0,4.0,58,0.00,,,0.00,weatherlink.com 1.10,2013-09-12 22:54:00,
2013-09-12 16:09:00,75.7,61.0,29.89,WSW,250,2.0,3.0,60,0.00,,,0.00,weatherlink.com 1.10,2013-09-12 23:09:00,
2013-09-12 16:24:00,76.4,60.0,29.89,ESE,113,0.0,2.0,58,0.00,,,0.00,weatherlink.com 1.10,2013-09-12 23:24:00,
2013-09-12 16:40:00,75.3,60.0,29.89,WNW,301,0.0,2.0,60,0.00,,,0.00,weatherlink.com 1.10,2013-09-12 23:40:00,
2013-09-12 16:55:00,74.5,61.0,29.88,SE,144,0.0,2.0,62,0.00,,,0.00,weatherlink.com 1.10,2013-09-12 23:55:00,
2013-09-12 17:10:00,74.1,60.0,29.88,SSE,150,0.0,2.0,62,0.00,,,0.00,weatherlink.com 1.10,2013-09-13 00:10:00,
2013-09-12 17:25:00,73.5,60.0,29.88,SE,146,0.0,3.0,63,0.00,,,0.00,weatherlink.com 1.10,2013-09-13 00:25:00,
2013-09-12 17:40:00,73.5,59.0,29.88,SSE,147,0.0,2.0,61,0.00,,,0.00,weatherlink.com 1.10,2013-09-13 00:40:00,
2013-09-12 17:55:00,72.3,59.0,29.88,SSE,148,0.0,2.0,63,0.00,,,0.00,weatherlink.com 1.10,2013-09-13 00:55:00,
2013-09-12 18:10:00,70.7,58.0,29.88,SE,135,0.0,3.0,65,0.00,,,0.00,weatherlink.com 1.10,2013-09-13 01:10:00,
2013-09-12 18:25:00,69.2,58.0,29.88,SE,142,0.0,2.0,68,0.00,,,0.00,weatherlink.com 1.10,2013-09-13 01:25:00,
2013-09-12 18:40:00,68.0,58.0,29.89,SE,130,1.0,2.0,71,0.00,,,0.00,weatherlink.com 1.10,2013-09-13 01:40:00,
2013-09-12 18:55:00,67.1,58.0,29.89,SE,132,0.0,1.0,72,0.00,,,0.00,weatherlink.com 1.10,2013-09-13 01:55:00,
2013-09-12 19:10:00,65.6,57.0,29.89,SE,131,0.0,1.0,74,0.00,,,0.00,weatherlink.com 1.10,2013-09-13 02:10:00,
2013-09-12 19:25:00,64.3,57.0,29.89,SE,142,0.0,1.0,77,0.00,,,0.00,weatherlink.com 1.10,2013-09-13 02:25:00,
2013-09-12 19:40:00,63.3,57.0,29.89,SE,142,0.0,0.0,80,0.00,,,0.00,weatherlink.com 1.10,2013-09-13 02:40:00,
2013-09-12 19:55:00,62.5,57.0,29.90,SE,139,0.0,0.0,81,0.00,,,0.00,weatherlink.com 1.10,2013-09-13 02:55:00,
2013-09-12 20:10:00,62.0,56.0,29.90,SE,128,0.0,1.0,82,0.00,,,0.00,weatherlink.com 1.10,2013-09-13 03:10:00,
2013-09-12 20:25:00,61.6,56.0,29.90,West,271,0.0,0.0,83,0.00,,,0.00,weatherlink.com 1.10,2013-09-13 03:25:00,
2013-09-12 20:40:00,61.1,56.0,29.91,West,271,0.0,0.0,84,0.00,,,0.00,weatherlink.com 1.10,2013-09-13 03:40:00,
2013-09-12 20:55:00,61.0,57.0,29.91,SE,146,0.0,0.0,86,0.00,,,0.00,weatherlink.com 1.10,2013-09-13 03:55:00,
2013-09-12 21:10:00,61.0,57.0,29.92,SSE,149,0.0,1.0,86,0.00,,,0.00,weatherlink.com 1.10,2013-09-13 04:10:00,
2013-09-12 21:25:00,60.7,57.0,29.92,SSE,150,0.0,0.0,86,0.00,,,0.00,weatherlink.com 1.10,2013-09-13 04:25:00,
2013-09-12 21:40:00,60.2,57.0,29.92,SE,126,0.0,1.0,88,0.00,,,0.00,weatherlink.com 1.10,2013-09-13 04:40:00,
2013-09-12 21:55:00,60.0,57.0,29.92,SE,136,1.0,1.0,88,0.00,,,0.00,weatherlink.com 1.10,2013-09-13 04:55:00,
2013-09-12 22:10:00,59.6,56.0,29.92,SE,133,0.0,1.0,89,0.00,,,0.00,weatherlink.com 1.10,2013-09-13 05:10:00,
2013-09-12 22:25:00,59.4,57.0,29.92,SE,139,0.0,1.0,90,0.00,,,0.00,weatherlink.com 1.10,2013-09-13 05:25:00,
2013-09-12 22:40:00,59.1,57.0,29.92,ESE,123,0.0,1.0,91,0.00,,,0.00,weatherlink.com 1.10,2013-09-13 05:40:00,
2013-09-12 22:55:00,59.0,56.0,29.92,SE,142,0.0,2.0,91,0.00,,,0.00,weatherlink.com 1.10,2013-09-13 05:55:00,
2013-09-12 23:10:00,58.4,56.0,29.92,SE,143,0.0,1.0,90,0.00,,,0.00,weatherlink.com 1.10,2013-09-13 06:10:00,
2013-09-12 23:25:00,57.6,55.0,29.92,SE,143,0.0,0.0,90,0.00,,,0.00,weatherlink.com 1.10,2013-09-13 06:25:00,
2013-09-12 23:40:00,56.5,54.0,29.91,SE,143,0.0,0.0,91,0.00,,,0.00,weatherlink.com 1.10,2013-09-13 06:40:00,
2013-09-12 23:55:00,56.4,54.0,29.91,SE,143,0.0,0.0,92,0.00,,,0.00,weatherlink.com 1.10,2013-09-13 06:55:00,